Time;durP1;ratioP1;P1;durP2;ratioP2;P2;SDS_P1;SDS_P2;PMS_P1;PMS_P2;Temp;Humidity;BMP_temperature;BMP_pressure;BME280_temperature;BME280_humidity;BME280_pressure;Samples;Min_cycle;Max_cycle;Signal;HPM_P1;HPM_P2
2022/07/21 00:00:11;;;;;;;13.23;10.82;;;20.10;99.90;;;;;;4840377;29;20519;-66
2022/07/21 00:02:36;;;;;;;14.40;10.73;;;20.10;99.90;;;;;;4827143;29;20069;-66
2022/07/21 00:05:02;;;;;;;10.90;9.80;;;20.10;99.90;;;;;;4834306;29;20063;-65
2022/07/21 00:07:28;;;;;;;14.35;11.07;;;20.10;99.90;;;;;;4836700;29;20057;-66
2022/07/21 00:09:55;;;;;;;13.57;9.70;;;20.10;99.90;;;;;;4854326;29;20054;-67
2022/07/21 00:12:21;;;;;;;12.50;10.32;;;20.10;99.90;;;;;;4832665;29;20046;-66
2022/07/21 00:14:46;;;;;;;11.55;9.98;;;20.00;99.90;;;;;;4840888;29;20126;-65
2022/07/21 00:17:12;;;;;;;15.35;10.43;;;20.00;99.90;;;;;;4840911;29;20405;-65
2022/07/21 00:19:38;;;;;;;10.90;9.63;;;20.00;99.90;;;;;;4835383;29;20054;-67
2022/07/21 00:22:03;;;;;;;13.48;9.23;;;19.90;99.90;;;;;;4841830;29;20057;-67
2022/07/21 00:24:29;;;;;;;13.20;10.45;;;19.90;99.90;;;;;;4839506;29;20057;-66
2022/07/21 00:26:55;;;;;;;15.50;10.63;;;19.90;99.90;;;;;;4840461;29;20170;-67
2022/07/21 00:29:20;;;;;;;14.07;10.27;;;19.90;99.90;;;;;;4838878;29;20499;-67
2022/07/21 00:31:46;;;;;;;12.50;9.98;;;19.90;99.90;;;;;;4839141;29;20130;-66
2022/07/21 00:34:12;;;;;;;18.55;11.32;;;19.80;99.90;;;;;;4839892;29;20198;-66
2022/07/21 00:36:37;;;;;;;15.18;10.70;;;19.80;99.90;;;;;;4842932;29;20065;-65
2022/07/21 00:39:03;;;;;;;13.10;10.82;;;19.80;99.90;;;;;;4841043;29;20053;-66
2022/07/21 00:41:29;;;;;;;15.02;10.88;;;19.70;99.90;;;;;;4845193;29;20455;-66
2022/07/21 00:43:54;;;;;;;14.38;11.25;;;19.70;99.90;;;;;;4825212;29;20077;-68
2022/07/21 00:46:21;;;;;;;14.43;10.65;;;19.60;99.90;;;;;;4837115;29;20125;-66
2022/07/21 00:48:47;;;;;;;12.70;10.85;;;19.60;99.90;;;;;;4844553;29;20415;-67
2022/07/21 00:51:12;;;;;;;15.57;11.25;;;19.60;99.90;;;;;;4834590;29;20169;-67
2022/07/21 00:53:38;;;;;;;15.93;11.10;;;19.60;99.90;;;;;;4839186;29;20065;-66
2022/07/21 00:56:04;;;;;;;14.07;11.85;;;19.60;99.90;;;;;;4842376;29;20066;-66
2022/07/21 00:58:30;;;;;;;14.00;9.45;;;19.60;99.90;;;;;;4843013;29;20050;-66
2022/07/21 01:00:56;;;;;;;12.52;9.80;;;19.60;99.90;;;;;;4837909;29;20114;-66
2022/07/21 01:03:21;;;;;;;12.25;10.93;;;19.60;99.90;;;;;;4842482;29;20472;-66
2022/07/21 01:05:47;;;;;;;11.63;10.05;;;19.50;99.90;;;;;;4843880;29;20138;-66
2022/07/21 01:08:14;;;;;;;14.43;11.18;;;19.50;99.90;;;;;;4838084;29;20093;-67
2022/07/21 01:10:39;;;;;;;12.63;10.35;;;19.40;99.90;;;;;;4841031;29;20098;-66
2022/07/21 01:13:05;;;;;;;12.18;9.80;;;19.40;99.90;;;;;;4843474;29;20054;-67
2022/07/21 01:15:31;;;;;;;14.13;10.50;;;19.40;99.90;;;;;;4838158;29;20507;-67
2022/07/21 01:17:57;;;;;;;13.57;11.32;;;19.40;99.90;;;;;;4839871;29;20050;-65
2022/07/21 01:20:23;;;;;;;13.02;10.48;;;19.40;99.90;;;;;;4839714;29;20046;-66
2022/07/21 01:22:52;;;;;;;14.82;11.73;;;19.40;99.90;;;;;;4844574;29;20411;-66
2022/07/21 01:25:19;;;;;;;15.93;11.02;;;19.40;99.90;;;;;;4842648;29;20050;-65
2022/07/21 01:27:45;;;;;;;12.32;10.70;;;19.40;99.90;;;;;;4838434;29;20061;-66
2022/07/21 01:30:12;;;;;;;16.60;13.35;;;19.30;99.90;;;;;;4841569;29;20058;-67
2022/07/21 01:32:39;;;;;;;17.23;12.23;;;19.40;99.90;;;;;;4843637;29;20062;-66
2022/07/21 01:35:07;;;;;;;14.45;11.88;;;19.40;99.90;;;;;;4841148;29;20117;-67
2022/07/21 01:37:37;;;;;;;14.93;12.20;;;19.40;99.90;;;;;;4843742;29;20084;-66
2022/07/21 01:42:48;;;;;;;17.60;12.52;;;19.40;99.90;;;;;;4836417;29;20054;-65
2022/07/21 01:45:14;;;;;;;16.48;12.77;;;19.40;99.90;;;;;;4842170;29;20092;-65
2022/07/21 01:47:40;;;;;;;18.77;13.82;;;19.40;99.90;;;;;;4842227;29;20058;-65
2022/07/21 01:50:06;;;;;;;19.42;12.98;;;19.30;99.90;;;;;;4842987;29;20073;-67
2022/07/21 01:52:32;;;;;;;17.23;13.48;;;19.30;99.90;;;;;;4842179;29;20157;-66
2022/07/21 01:54:58;;;;;;;14.60;10.65;;;19.40;99.90;;;;;;4837526;29;20140;-65
2022/07/21 01:57:23;;;;;;;15.38;12.82;;;19.30;99.90;;;;;;4843252;29;20444;-68
2022/07/21 01:59:49;;;;;;;16.00;11.57;;;19.30;99.90;;;;;;4844050;29;20095;-66
2022/07/21 02:02:15;;;;;;;15.95;12.63;;;19.20;99.90;;;;;;4839814;29;20062;-67
2022/07/21 02:04:40;;;;;;;15.25;11.38;;;19.10;99.90;;;;;;4843087;29;20049;-66
2022/07/21 02:07:06;;;;;;;22.33;13.32;;;19.10;99.90;;;;;;4842331;29;20058;-65
2022/07/21 02:09:32;;;;;;;18.80;13.38;;;19.00;99.90;;;;;;4834931;29;20065;-67
2022/07/21 02:11:58;;;;;;;16.92;13.63;;;19.00;99.90;;;;;;4841407;29;20153;-68
2022/07/21 02:14:24;;;;;;;18.92;13.45;;;19.00;99.90;;;;;;4841948;29;20132;-65
2022/07/21 02:16:49;;;;;;;19.42;14.18;;;19.00;99.90;;;;;;4840848;29;20136;-66
2022/07/21 02:19:15;;;;;;;17.63;14.80;;;19.00;99.90;;;;;;4843610;29;20132;-66
2022/07/21 02:21:41;;;;;;;15.32;13.73;;;19.00;99.90;;;;;;4826307;29;20075;-65
2022/07/21 02:24:07;;;;;;;17.92;12.82;;;19.00;99.90;;;;;;4843508;29;20050;-66
2022/07/21 02:26:33;;;;;;;15.30;13.57;;;18.90;99.90;;;;;;4840715;29;20416;-66
2022/07/21 02:28:58;;;;;;;16.90;13.15;;;19.00;99.90;;;;;;4843001;29;20568;-66
2022/07/21 02:31:24;;;;;;;20.45;14.95;;;19.00;99.90;;;;;;4842070;29;20054;-66
2022/07/21 02:33:50;;;;;;;17.35;14.32;;;19.00;99.90;;;;;;4842664;29;20072;-66
2022/07/21 02:36:15;;;;;;;18.08;14.90;;;19.00;99.90;;;;;;4838018;29;20480;-65
2022/07/21 02:38:41;;;;;;;19.15;14.40;;;19.00;99.90;;;;;;4841976;29;20054;-67
2022/07/21 02:41:07;;;;;;;20.67;16.20;;;18.90;99.90;;;;;;4839426;29;20503;-66
2022/07/21 02:43:32;;;;;;;17.67;14.73;;;18.90;99.90;;;;;;4841853;29;20438;-65
2022/07/21 02:45:58;;;;;;;18.83;15.55;;;18.90;99.90;;;;;;4837024;29;20050;-66
2022/07/21 02:48:24;;;;;;;15.70;13.77;;;18.90;99.90;;;;;;4842383;29;20046;-66
2022/07/21 02:50:49;;;;;;;19.10;15.57;;;18.90;99.90;;;;;;4840892;29;20057;-66
2022/07/21 02:53:18;;;;;;;17.20;14.77;;;18.90;99.90;;;;;;4840471;29;20133;-66
2022/07/21 02:55:45;;;;;;;19.58;15.82;;;18.90;99.90;;;;;;4842937;29;20360;-67
2022/07/21 02:58:15;;;;;;;20.67;15.93;;;19.00;99.90;;;;;;4839804;29;20179;-66
2022/07/21 03:01:02;;;;;;;17.70;15.32;;;18.90;99.90;;;;;;4840019;29;20065;-66
2022/07/21 03:03:30;;;;;;;18.23;15.73;;;19.00;99.90;;;;;;4840330;29;20062;-67
2022/07/21 03:05:56;;;;;;;18.13;14.63;;;19.00;99.90;;;;;;4841855;29;20459;-67
2022/07/21 03:08:23;;;;;;;13.38;11.73;;;19.00;99.90;;;;;;4841418;29;20399;-67
2022/07/21 03:10:49;;;;;;;15.25;13.65;;;19.00;99.90;;;;;;4839852;29;20054;-66
2022/07/21 03:13:14;;;;;;;18.10;15.13;;;19.00;99.90;;;;;;4835604;29;20379;-66
2022/07/21 03:15:41;;;;;;;20.70;15.52;;;19.00;99.90;;;;;;4835717;29;20513;-66
2022/07/21 03:18:07;;;;;;;19.65;16.52;;;18.90;99.90;;;;;;4838295;29;20536;-67
2022/07/21 03:20:35;;;;;;;16.65;14.75;;;18.90;99.90;;;;;;4841032;29;20065;-66
2022/07/21 03:23:00;;;;;;;17.98;15.10;;;18.90;99.90;;;;;;4838851;29;20064;-66
2022/07/21 03:25:26;;;;;;;19.27;16.15;;;18.90;99.90;;;;;;4842432;29;20140;-66
2022/07/21 03:27:52;;;;;;;16.52;14.20;;;18.90;99.90;;;;;;4838734;29;20096;-66
2022/07/21 03:30:18;;;;;;;18.33;15.93;;;18.90;99.90;;;;;;4841099;29;20393;-67
2022/07/21 03:32:48;;;;;;;17.42;15.57;;;18.90;99.90;;;;;;4830790;29;20116;-67
2022/07/21 03:35:18;;;;;;;21.77;17.52;;;18.90;99.90;;;;;;4838447;29;20061;-66
2022/07/21 03:37:55;;;;;;;18.83;15.50;;;18.90;99.90;;;;;;4840822;29;20058;-66
2022/07/21 03:43:30;;;;;;;18.02;14.75;;;18.90;99.90;;;;;;4830522;29;20054;-67
2022/07/21 03:45:55;;;;;;;16.42;14.75;;;18.80;99.90;;;;;;4841365;29;20125;-67
2022/07/21 03:48:21;;;;;;;19.05;15.63;;;18.90;99.90;;;;;;4840732;29;20075;-66
2022/07/21 03:50:50;;;;;;;18.08;16.10;;;18.90;99.90;;;;;;4842443;29;20054;-67
2022/07/21 03:53:21;;;;;;;17.92;16.00;;;18.90;99.90;;;;;;4837221;29;20045;-67
2022/07/21 03:55:47;;;;;;;18.50;16.60;;;18.90;99.90;;;;;;4836432;29;20069;-66
2022/07/21 03:58:14;;;;;;;19.40;16.65;;;18.90;99.90;;;;;;4837776;29;20054;-66
2022/07/21 04:00:42;;;;;;;19.25;16.98;;;18.90;99.90;;;;;;4839416;29;20065;-66
2022/07/21 04:03:09;;;;;;;19.58;17.58;;;19.00;99.90;;;;;;4823576;29;20077;-65
2022/07/21 04:05:35;;;;;;;22.40;19.48;;;19.00;99.90;;;;;;4842238;29;20575;-66
2022/07/21 04:08:02;;;;;;;22.13;19.77;;;19.10;99.90;;;;;;4836907;29;20058;-65
2022/07/21 04:10:30;;;;;;;22.05;19.67;;;19.00;99.90;;;;;;4847538;29;20081;-65
2022/07/21 04:12:58;;;;;;;24.27;21.60;;;19.10;99.90;;;;;;4839273;29;20475;-66
2022/07/21 04:15:24;;;;;;;25.88;23.02;;;19.10;99.90;;;;;;4842514;29;20085;-66
2022/07/21 04:17:50;;;;;;;24.70;22.00;;;19.10;99.90;;;;;;4841128;29;20085;-65
2022/07/21 04:20:17;;;;;;;27.38;24.50;;;19.00;99.90;;;;;;4845485;29;20061;-66
2022/07/21 04:22:44;;;;;;;25.30;22.60;;;19.10;99.90;;;;;;4828528;29;20081;-66
2022/07/21 04:25:10;;;;;;;24.00;21.45;;;19.00;99.90;;;;;;4845130;29;20383;-65
2022/07/21 04:27:36;;;;;;;25.85;23.15;;;19.10;99.90;;;;;;4841598;29;20144;-66
2022/07/21 04:30:04;;;;;;;25.48;22.90;;;19.00;99.90;;;;;;4847151;29;20221;-66
2022/07/21 04:32:30;;;;;;;25.17;21.95;;;18.90;99.90;;;;;;4844728;29;20511;-65
2022/07/21 04:34:56;;;;;;;24.08;21.58;;;19.00;99.90;;;;;;4843338;29;20085;-66
2022/07/21 04:37:26;;;;;;;24.42;21.83;;;19.00;99.90;;;;;;4841238;29;20411;-66
2022/07/21 04:39:54;;;;;;;25.90;23.23;;;19.10;99.90;;;;;;4844955;29;20050;-66
2022/07/21 04:42:25;;;;;;;24.20;21.60;;;19.10;99.90;;;;;;4840386;29;20077;-65
2022/07/21 04:44:54;;;;;;;24.45;21.90;;;19.10;99.90;;;;;;4834672;29;20477;-66
2022/07/21 04:47:20;;;;;;;25.48;22.83;;;19.10;99.90;;;;;;4811230;29;20391;-65
2022/07/21 04:49:46;;;;;;;28.42;24.02;;;19.10;99.90;;;;;;4839881;29;20457;-66
2022/07/21 04:52:12;;;;;;;26.52;23.73;;;19.10;99.90;;;;;;4828339;29;20085;-66
2022/07/21 04:54:39;;;;;;;28.10;24.35;;;19.00;99.90;;;;;;4820948;29;20125;-66
2022/07/21 05:00:45;;;;;;;29.17;24.27;;;19.10;99.90;;;;;;4826368;29;20054;-66
2022/07/21 05:03:13;;;;;;;28.90;24.20;;;19.00;99.90;;;;;;4852188;29;20423;-66
2022/07/21 05:05:39;;;;;;;29.98;25.02;;;19.10;99.90;;;;;;4844813;29;20057;-66
2022/07/21 05:08:04;;;;;;;29.35;24.08;;;19.10;99.90;;;;;;4843757;29;20057;-66
2022/07/21 05:10:30;;;;;;;27.38;24.48;;;19.10;99.90;;;;;;4842661;29;20058;-66
2022/07/21 05:12:56;;;;;;;26.42;23.77;;;19.10;99.90;;;;;;4838976;29;20058;-66
2022/07/21 05:15:21;;;;;;;28.88;24.23;;;19.10;99.90;;;;;;4841373;29;20085;-66
2022/07/21 05:17:47;;;;;;;27.77;24.63;;;19.20;99.90;;;;;;4841473;29;20050;-66
2022/07/21 05:20:13;;;;;;;31.38;25.80;;;19.20;99.90;;;;;;4840717;29;20049;-66
2022/07/21 05:22:38;;;;;;;30.10;26.13;;;19.30;99.90;;;;;;4844178;29;20426;-66
2022/07/21 05:25:05;;;;;;;29.77;26.63;;;19.30;99.90;;;;;;4840458;29;20053;-66
2022/07/21 05:27:31;;;;;;;27.45;24.52;;;19.30;99.90;;;;;;4840455;29;20064;-66
2022/07/21 05:29:57;;;;;;;25.77;23.02;;;19.30;99.90;;;;;;4840128;29;20054;-67
2022/07/21 05:32:23;;;;;;;26.27;23.45;;;19.30;99.90;;;;;;4839116;29;20427;-68
2022/07/21 05:34:49;;;;;;;26.67;23.80;;;19.30;99.90;;;;;;4836057;29;20058;-67
2022/07/21 05:37:15;;;;;;;25.90;23.15;;;19.30;99.90;;;;;;4836288;29;20118;-67
2022/07/21 05:39:41;;;;;;;26.98;23.98;;;19.40;99.90;;;;;;4834856;29;20049;-67
2022/07/21 05:42:06;;;;;;;26.35;23.30;;;19.40;99.90;;;;;;4840555;29;20057;-66
2022/07/21 05:44:32;;;;;;;27.05;23.95;;;19.50;99.90;;;;;;4838416;29;20054;-67
2022/07/21 05:46:58;;;;;;;25.73;23.05;;;19.50;99.90;;;;;;4837255;29;20194;-67
2022/07/21 05:49:24;;;;;;;25.10;22.42;;;19.60;99.90;;;;;;4836038;29;20091;-67
2022/07/21 05:51:50;;;;;;;25.23;22.52;;;19.80;99.90;;;;;;4838572;29;20499;-67
2022/07/21 05:54:16;;;;;;;25.38;22.88;;;20.10;99.90;;;;;;4841490;29;20060;-68
2022/07/21 05:56:42;;;;;;;24.33;21.85;;;20.60;99.90;;;;;;4830849;29;20457;-67
2022/07/21 05:59:08;;;;;;;24.20;21.73;;;21.10;99.90;;;;;;4826808;29;20122;-66
2022/07/21 06:01:33;;;;;;;24.20;21.80;;;21.30;99.90;;;;;;4840738;29;20118;-66
2022/07/21 06:03:59;;;;;;;23.35;21.13;;;21.30;99.90;;;;;;4823812;29;20054;-67
2022/07/21 06:06:24;;;;;;;23.80;21.35;;;21.30;99.90;;;;;;4837312;29;20072;-67
2022/07/21 06:08:51;;;;;;;26.13;22.45;;;21.20;99.90;;;;;;4842413;29;20058;-67
2022/07/21 06:11:19;;;;;;;23.90;21.50;;;21.10;99.90;;;;;;4843694;29;20042;-66
2022/07/21 06:13:45;;;;;;;23.13;20.90;;;21.00;99.90;;;;;;4835617;29;20054;-66
2022/07/21 06:16:12;;;;;;;23.23;20.83;;;20.90;99.90;;;;;;4842206;29;20116;-67
2022/07/21 06:18:37;;;;;;;24.25;21.70;;;20.80;99.90;;;;;;4835607;29;20046;-66
2022/07/21 06:21:04;;;;;;;23.17;20.95;;;20.70;99.90;;;;;;4837309;29;20081;-67
2022/07/21 06:23:30;;;;;;;24.13;21.73;;;20.60;99.90;;;;;;4835212;29;20492;-66
2022/07/21 06:25:56;;;;;;;23.08;20.35;;;20.50;99.90;;;;;;4843716;29;20062;-65
2022/07/21 06:28:22;;;;;;;20.25;18.33;;;20.40;99.90;;;;;;4843366;29;20419;-65
2022/07/21 06:30:48;;;;;;;22.38;20.17;;;20.30;99.90;;;;;;4843265;29;20050;-65
2022/07/21 06:33:14;;;;;;;22.63;20.25;;;20.20;99.90;;;;;;4842001;29;20061;-66
2022/07/21 06:35:40;;;;;;;23.13;20.77;;;20.10;99.90;;;;;;4841023;29;20062;-66
2022/07/21 06:38:05;;;;;;;20.83;18.73;;;20.00;99.90;;;;;;4841341;29;20183;-66
2022/07/21 06:40:31;;;;;;;23.08;20.75;;;20.00;99.90;;;;;;4842862;29;20057;-66
2022/07/21 06:42:57;;;;;;;21.42;19.23;;;19.90;99.90;;;;;;4842829;29;20140;-66
2022/07/21 06:45:23;;;;;;;21.55;19.00;;;19.80;99.90;;;;;;4841563;29;20469;-66
2022/07/21 06:47:49;;;;;;;20.42;18.42;;;19.80;99.90;;;;;;4834496;29;20072;-66
2022/07/21 06:50:15;;;;;;;19.88;17.92;;;19.80;99.90;;;;;;4842084;29;20050;-66
2022/07/21 06:52:41;;;;;;;21.83;19.70;;;19.70;99.90;;;;;;4841604;29;20058;-66
2022/07/21 06:55:09;;;;;;;20.83;18.77;;;19.70;99.90;;;;;;4842544;29;20118;-66
2022/07/21 06:57:35;;;;;;;23.13;20.67;;;19.70;99.90;;;;;;4837543;29;20085;-66
2022/07/21 07:00:04;;;;;;;23.27;20.88;;;19.70;99.90;;;;;;4834836;29;20050;-65
2022/07/21 07:02:30;;;;;;;24.08;21.02;;;19.70;99.90;;;;;;4842197;29;20057;-66
2022/07/21 07:04:56;;;;;;;25.13;22.42;;;19.70;99.90;;;;;;4842441;29;20070;-66
2022/07/21 07:07:21;;;;;;;22.92;20.48;;;19.70;99.90;;;;;;4837129;29;20061;-66
2022/07/21 07:09:47;;;;;;;27.67;24.67;;;19.80;99.90;;;;;;4842268;29;20062;-66
2022/07/21 07:12:12;;;;;;;25.90;22.50;;;19.80;99.90;;;;;;4839573;29;20106;-66
2022/07/21 07:14:38;;;;;;;26.33;23.73;;;19.80;99.90;;;;;;4842289;29;20102;-66
2022/07/21 07:17:04;;;;;;;26.52;23.75;;;19.90;99.90;;;;;;4841522;29;20062;-66
2022/07/21 07:19:30;;;;;;;26.95;24.05;;;20.00;99.90;;;;;;4842282;29;20483;-66
2022/07/21 07:21:56;;;;;;;26.95;24.15;;;20.10;99.90;;;;;;4842348;29;20056;-67
2022/07/21 07:24:22;;;;;;;26.23;23.52;;;20.10;99.90;;;;;;4842262;29;20053;-66
2022/07/21 07:26:48;;;;;;;26.10;23.33;;;20.10;99.90;;;;;;4842589;29;20400;-65
2022/07/21 07:29:14;;;;;;;29.83;25.95;;;20.20;99.90;;;;;;4825468;29;20046;-67
2022/07/21 07:31:39;;;;;;;28.85;25.35;;;20.20;99.90;;;;;;4839864;29;20551;-66
2022/07/21 07:34:06;;;;;;;27.77;25.00;;;20.40;99.90;;;;;;4842292;29;20128;-67
2022/07/21 07:36:32;;;;;;;28.63;25.58;;;20.50;99.90;;;;;;4841981;29;20102;-67
2022/07/21 07:38:58;;;;;;;28.23;25.23;;;20.70;99.90;;;;;;4840892;29;20086;-66
2022/07/21 07:41:26;;;;;;;32.70;28.00;;;20.80;99.90;;;;;;4841718;29;20133;-66
2022/07/21 07:43:52;;;;;;;31.80;27.40;;;20.80;99.90;;;;;;4840951;29;20057;-67
2022/07/21 07:46:19;;;;;;;31.50;28.20;;;21.00;99.90;;;;;;4844168;29;20050;-66
2022/07/21 07:48:44;;;;;;;31.80;28.35;;;21.00;99.90;;;;;;4843607;29;20081;-66
2022/07/21 07:51:11;;;;;;;33.08;29.02;;;21.10;99.90;;;;;;4845443;29;20081;-66
2022/07/21 07:53:37;;;;;;;34.00;29.27;;;21.10;99.90;;;;;;4845755;29;20146;-66
2022/07/21 07:56:03;;;;;;;33.15;29.33;;;21.10;99.90;;;;;;4844805;29;20068;-67
2022/07/21 07:58:29;;;;;;;31.42;27.40;;;21.10;99.90;;;;;;4844933;29;20470;-66
2022/07/21 08:00:54;;;;;;;29.73;26.33;;;21.40;99.90;;;;;;4845566;29;20053;-66
2022/07/21 08:03:21;;;;;;;26.38;23.55;;;21.70;99.90;;;;;;4845175;29;20124;-65
2022/07/21 08:05:47;;;;;;;31.58;28.17;;;22.00;99.90;;;;;;4845424;29;20061;-65
2022/07/21 08:08:14;;;;;;;28.25;25.20;;;22.30;99.90;;;;;;4844706;29;20062;-65
2022/07/21 08:10:40;;;;;;;29.20;26.25;;;22.60;99.90;;;;;;4843148;29;20066;-66
2022/07/21 08:13:05;;;;;;;27.60;24.60;;;22.80;99.90;;;;;;4844211;29;20118;-67
2022/07/21 08:15:31;;;;;;;32.70;28.55;;;22.80;99.90;;;;;;4824050;29;20053;-66
2022/07/21 08:17:57;;;;;;;31.73;28.30;;;22.80;99.90;;;;;;4840645;29;20111;-67
2022/07/21 08:20:22;;;;;;;30.90;27.60;;;22.80;99.90;;;;;;4844114;29;20064;-66
2022/07/21 08:22:48;;;;;;;29.17;26.13;;;22.80;99.90;;;;;;4842992;29;20058;-66
2022/07/21 08:25:13;;;;;;;29.27;26.08;;;22.80;99.90;;;;;;4838649;29;20054;-65
2022/07/21 08:27:41;;;;;;;27.70;24.95;;;23.00;99.90;;;;;;4826654;29;20062;-66
2022/07/21 08:30:08;;;;;;;25.92;23.40;;;23.20;99.90;;;;;;4846386;29;20050;-66
2022/07/21 08:32:34;;;;;;;23.65;21.27;;;23.30;99.90;;;;;;4841294;29;20066;-66
2022/07/21 08:35:00;;;;;;;25.25;22.65;;;23.30;99.90;;;;;;4834860;29;20053;-67
2022/07/21 08:37:25;;;;;;;23.25;21.00;;;23.20;99.90;;;;;;4844246;29;20066;-66
2022/07/21 08:39:51;;;;;;;22.30;20.15;;;23.30;99.90;;;;;;4868345;29;20058;-67
2022/07/21 08:42:17;;;;;;;23.17;20.77;;;23.50;99.90;;;;;;4836099;29;20085;-66
2022/07/21 08:44:43;;;;;;;22.25;20.15;;;23.80;99.90;;;;;;4838052;29;20050;-67
2022/07/21 08:47:08;;;;;;;21.45;19.38;;;24.00;99.90;;;;;;4844461;29;20058;-67
2022/07/21 08:49:35;;;;;;;21.48;19.45;;;24.30;99.90;;;;;;4843350;29;20072;-66
2022/07/21 08:52:01;;;;;;;22.98;20.35;;;24.40;99.90;;;;;;4843008;29;20208;-65
2022/07/21 08:54:26;;;;;;;23.90;21.45;;;24.30;99.90;;;;;;4836363;29;20058;-67
2022/07/21 08:56:52;;;;;;;24.55;22.08;;;24.20;99.90;;;;;;4837730;29;20538;-66
2022/07/21 08:59:18;;;;;;;25.10;22.60;;;24.30;99.90;;;;;;4844133;29;20060;-67
2022/07/21 09:01:43;;;;;;;23.83;21.38;;;24.50;99.90;;;;;;4843530;29;20075;-66
2022/07/21 09:04:29;;;;;;;22.23;20.02;;;24.50;99.90;;;;;;4844438;29;20057;-66
2022/07/21 09:07:06;;;;;;;19.30;17.50;;;24.30;99.90;;;;;;4838782;29;20110;-67
2022/07/21 09:09:33;;;;;;;19.65;17.75;;;24.20;99.90;;;;;;4842976;29;20060;-67
2022/07/21 09:12:25;;;;;;;22.15;19.90;;;24.30;99.90;;;;;;4842705;29;20085;-67
2022/07/21 09:14:50;;;;;;;20.87;18.87;;;24.10;99.90;;;;;;4815257;29;20085;-67
2022/07/21 09:17:44;;;;;;;19.73;17.67;;;23.90;99.90;;;;;;4857936;29;20118;-66
2022/07/21 09:20:22;;;;;;;20.08;18.08;;;23.70;99.90;;;;;;4843211;29;20061;-66
2022/07/21 09:26:10;;;;;;;19.33;17.40;;;23.30;99.90;;;;;;4844187;29;20057;-66
2022/07/21 09:29:13;;;;;;;19.95;17.35;;;23.20;99.90;;;;;;4841658;29;20488;-67
2022/07/21 09:39:18;;;;;;;17.48;15.75;;;23.80;99.90;;;;;;4823715;29;20114;-66
2022/07/21 09:41:44;;;;;;;17.95;16.25;;;24.20;99.90;;;;;;4808203;29;20185;-67
2022/07/21 09:48:36;;;;;;;17.20;15.40;;;24.00;99.90;;;;;;4820895;29;20057;-67
2022/07/21 09:51:43;;;;;;;18.42;16.30;;;23.60;99.90;;;;;;4841497;29;20476;-66
2022/07/21 09:54:15;;;;;;;16.63;14.98;;;23.30;99.90;;;;;;4841834;29;20057;-67
2022/07/21 09:56:43;;;;;;;20.20;18.20;;;23.20;99.90;;;;;;4811067;29;20161;-66
2022/07/21 09:59:11;;;;;;;24.35;21.85;;;23.20;99.90;;;;;;4819320;29;20046;-67
2022/07/21 10:01:37;;;;;;;26.10;23.42;;;22.80;99.90;;;;;;4842831;29;20476;-66
2022/07/21 10:04:04;;;;;;;26.17;23.58;;;22.80;99.90;;;;;;4841983;29;20118;-66
2022/07/21 10:06:56;;;;;;;27.17;24.35;;;22.70;99.90;;;;;;4842571;29;20061;-66
2022/07/21 10:09:32;;;;;;;;;;;22.50;99.90;;;;;;4842230;29;20053;-66
2022/07/21 10:11:59;;;;;;;25.42;22.20;;;22.20;99.90;;;;;;4826490;29;19942;-66
2022/07/21 10:14:25;;;;;;;26.48;23.77;;;22.20;99.90;;;;;;4843258;29;20053;-67
2022/07/21 10:16:50;;;;;;;25.98;23.25;;;22.00;99.90;;;;;;4842578;29;20048;-66
2022/07/21 10:19:36;;;;;;;25.58;23.00;;;21.90;99.90;;;;;;4843237;29;20058;-66
2022/07/21 10:22:12;;;;;;;25.77;22.98;;;21.80;99.90;;;;;;4843169;29;20062;-67
2022/07/21 10:24:38;;;;;;;26.60;23.70;;;21.70;99.90;;;;;;4843335;29;20057;-66
2022/07/21 10:27:12;;;;;;;27.42;24.50;;;21.70;99.90;;;;;;4843537;29;20153;-65
2022/07/21 10:29:59;;;;;;;26.05;23.02;;;21.70;99.90;;;;;;4842518;29;20064;-66
2022/07/21 10:32:34;;;;;;;26.58;23.67;;;21.60;99.90;;;;;;4841894;29;20046;-66
2022/07/21 10:35:21;;;;;;;27.85;24.08;;;21.60;99.90;;;;;;4842909;29;20057;-66
2022/07/21 10:37:48;;;;;;;25.20;22.52;;;21.60;99.90;;;;;;4840708;29;20077;-66
2022/07/21 10:40:19;;;;;;;28.83;25.73;;;21.70;99.90;;;;;;4818976;29;20065;-66
2022/07/21 10:43:05;;;;;;;30.25;26.75;;;21.70;99.90;;;;;;4833776;29;20122;-67
2022/07/21 10:45:38;;;;;;;29.15;26.00;;;21.70;99.90;;;;;;4833268;29;20140;-66
2022/07/21 10:48:24;;;;;;;29.42;25.92;;;21.80;99.90;;;;;;4840072;29;20109;-66
2022/07/21 10:50:51;;;;;;;29.65;26.52;;;21.90;99.90;;;;;;4843147;29;20065;-66
2022/07/21 10:53:18;;;;;;;28.77;25.90;;;22.10;99.90;;;;;;4838877;29;20169;-66
2022/07/21 10:55:52;;;;;;;29.73;26.55;;;22.20;99.90;;;;;;4841376;29;20061;-66
2022/07/21 10:58:25;;;;;;;31.55;26.80;;;22.40;99.90;;;;;;4841355;29;20062;-65
2022/07/21 11:00:56;;;;;;;29.15;26.15;;;22.50;99.90;;;;;;4842676;29;20084;-66
2022/07/21 11:03:39;;;;;;;27.90;24.90;;;22.60;99.90;;;;;;4842451;29;20134;-66
2022/07/21 11:06:22;;;;;;;31.40;26.85;;;22.80;99.90;;;;;;4842400;29;20061;-66
2022/07/21 11:09:04;;;;;;;28.92;25.85;;;22.90;99.90;;;;;;4836168;29;20106;-67
2022/07/21 11:11:32;;;;;;;28.35;25.13;;;23.00;99.90;;;;;;4858488;29;20072;-67
2022/07/21 11:14:04;;;;;;;26.83;23.60;;;23.00;99.90;;;;;;4856750;29;20098;-66
2022/07/21 11:16:41;;;;;;;;;;;22.90;99.90;;;;;;4842656;29;20220;-66
2022/07/21 11:19:26;;;;;;;21.98;19.65;;;22.80;99.90;;;;;;4842016;29;20388;-66
2022/07/21 11:21:52;;;;;;;24.33;20.88;;;22.70;99.90;;;;;;4841085;29;20054;-66
2022/07/21 11:24:22;;;;;;;21.60;17.92;;;22.50;99.90;;;;;;4841407;29;20050;-67
2022/07/21 11:27:14;;;;;;;20.20;18.10;;;22.30;99.90;;;;;;4842002;29;20053;-66
2022/07/21 11:29:42;;;;;;;19.17;16.40;;;22.00;99.90;;;;;;4839574;29;20062;-66
2022/07/21 11:32:09;;;;;;;17.80;15.98;;;21.70;99.90;;;;;;4841463;29;20057;-66
2022/07/21 11:34:45;;;;;;;16.08;14.27;;;21.60;99.90;;;;;;4842553;29;20057;-66
2022/07/21 11:37:13;;;;;;;16.90;14.80;;;21.40;99.90;;;;;;4841345;29;20519;-66
2022/07/21 11:39:39;;;;;;;18.30;16.42;;;21.30;99.90;;;;;;4822749;29;20381;-66
2022/07/21 11:42:11;;;;;;;20.85;17.70;;;21.10;99.90;;;;;;4836923;29;20058;-66
2022/07/21 11:44:37;;;;;;;;;;;21.10;99.90;;;;;;4840071;29;20410;-66
2022/07/21 11:47:05;;;;;;;22.58;19.35;;;20.90;99.90;;;;;;4835925;29;20019;-66
2022/07/21 11:49:31;;;;;;;22.00;19.70;;;20.80;99.90;;;;;;4840655;29;20058;-67
2022/07/21 11:52:07;;;;;;;24.00;20.98;;;20.80;99.90;;;;;;4841729;29;20058;-67
2022/07/21 11:54:37;;;;;;;24.38;21.15;;;20.90;99.90;;;;;;4842118;29;20129;-67
2022/07/21 11:57:05;;;;;;;26.02;21.70;;;20.90;99.90;;;;;;4840877;29;20104;-67
2022/07/21 11:59:32;;;;;;;26.80;23.77;;;21.00;99.90;;;;;;4839890;29;20157;-67
2022/07/21 12:01:59;;;;;;;28.52;23.58;;;21.10;99.90;;;;;;4840297;29;20065;-67
2022/07/21 12:04:28;;;;;;;26.02;23.33;;;21.20;99.90;;;;;;4842149;29;20061;-66
2022/07/21 12:06:53;;;;;;;24.90;21.92;;;21.30;99.90;;;;;;4841801;29;20108;-65
2022/07/21 12:09:19;;;;;;;29.20;25.90;;;21.40;99.90;;;;;;4841664;29;20085;-65
2022/07/21 12:11:45;;;;;;;28.30;25.33;;;21.50;99.90;;;;;;4841587;29;20057;-66
2022/07/21 12:14:11;;;;;;;29.10;25.88;;;21.60;99.90;;;;;;4839946;29;20522;-66
2022/07/21 12:16:50;;;;;;;24.35;21.80;;;21.70;99.90;;;;;;4839458;29;20089;-64
2022/07/21 12:19:17;;;;;;;25.75;22.80;;;21.80;99.90;;;;;;4841259;29;20481;-65
2022/07/21 12:21:51;;;;;;;28.73;25.27;;;21.90;99.90;;;;;;4828016;29;20058;-65
2022/07/21 12:24:19;;;;;;;26.35;23.60;;;21.90;99.90;;;;;;4835546;29;20058;-65
2022/07/21 12:26:45;;;;;;;26.88;22.52;;;22.00;99.90;;;;;;4841739;29;20053;-65
2022/07/21 12:29:28;;;;;;;27.67;23.77;;;22.10;99.90;;;;;;4841600;29;20575;-66
2022/07/21 12:31:53;;;;;;;23.85;21.42;;;22.10;99.90;;;;;;4843551;29;20058;-65
2022/07/21 12:34:19;;;;;;;21.80;19.67;;;22.10;99.90;;;;;;4844923;29;20058;-63
2022/07/21 12:36:46;;;;;;;20.52;18.42;;;22.10;99.90;;;;;;4839910;29;20138;-65
2022/07/21 12:42:05;;;;;;;9.63;8.65;;;22.00;99.90;;;;;;4843894;29;20062;-66
2022/07/21 12:44:32;;;;;;;10.20;9.20;;;21.80;99.90;;;;;;4843587;29;20078;-65
2022/07/21 12:47:16;;;;;;;10.60;9.38;;;21.80;99.90;;;;;;4844549;29;20076;-65
2022/07/21 12:49:54;;;;;;;10.57;9.30;;;21.80;99.90;;;;;;4830213;29;20046;-65
2022/07/21 12:52:20;;;;;;;11.10;10.00;;;21.80;99.90;;;;;;4842436;29;20069;-66
2022/07/21 12:54:46;;;;;;;13.98;12.57;;;21.90;99.90;;;;;;4843652;29;20062;-67
2022/07/21 12:57:11;;;;;;;16.50;14.63;;;22.00;99.90;;;;;;4835681;29;20068;-65
2022/07/21 12:59:37;;;;;;;15.30;13.77;;;22.10;99.90;;;;;;4839778;29;20054;-67